Time;durP1;ratioP1;P1;durP2;ratioP2;P2;SDS_P1;SDS_P2;PMS_P1;PMS_P2;Temp;Humidity;BMP_temperature;BMP_pressure;BME280_temperature;BME280_humidity;BME280_pressure;Samples;Min_cycle;Max_cycle;Signal;HPM_P1;HPM_P2
2021/09/24 00:04:46;;;;;;;5.73;2.40;;;18.60;87.20;;;;;;20883076;28;80528;-74
2021/09/24 00:14:49;;;;;;;4.93;2.20;;;18.50;87.10;;;;;;20882907;28;80472;-74
2021/09/24 00:24:52;;;;;;;5.00;1.92;;;18.50;86.70;;;;;;20883143;28;81189;-73
2021/09/24 00:34:54;;;;;;;;;;;18.60;86.40;;;;;;20893163;27;80642;-73
2021/09/24 00:44:57;;;;;;;5.67;2.20;;;18.70;88.10;;;;;;20918796;28;81890;-73
2021/09/24 00:55:00;;;;;;;6.38;2.22;;;18.70;86.60;;;;;;20876875;28;80025;-72
2021/09/24 01:05:02;;;;;;;5.45;2.00;;;18.70;86.10;;;;;;20894245;28;80733;-74
2021/09/24 01:15:08;;;;;;;5.95;2.10;;;18.80;85.70;;;;;;20876686;28;81197;-72
2021/09/24 01:25:13;;;;;;;3.00;1.83;;;18.80;85.50;;;;;;20874982;28;80935;-74
2021/09/24 01:35:24;;;;;;;6.35;2.28;;;18.90;85.30;;;;;;20892076;28;80444;-73
2021/09/24 01:45:31;;;;;;;6.18;2.00;;;18.80;85.20;;;;;;20889896;27;79857;-73
2021/09/24 01:55:43;;;;;;;;;;;18.80;85.20;;;;;;20874573;28;82219;-74
2021/09/24 02:05:49;;;;;;;4.00;2.15;;;18.80;87.20;;;;;;20894677;28;79550;-71
2021/09/24 02:15:52;;;;;;;5.05;2.28;;;18.80;85.20;;;;;;20889688;28;79903;-73
2021/09/24 02:25:54;;;;;;;3.15;2.05;;;18.80;84.90;;;;;;20871440;28;81114;-73
2021/09/24 02:35:56;;;;;;;2.97;1.80;;;18.80;84.80;;;;;;20888362;28;82265;-72
2021/09/24 02:46:00;;;;;;;7.30;2.33;;;18.80;84.40;;;;;;20887704;28;81471;-71
2021/09/24 02:56:05;;;;;;;5.63;2.00;;;18.80;83.90;;;;;;20885966;27;80818;-72
2021/09/24 03:06:08;;;;;;;8.23;2.33;;;18.90;83.30;;;;;;20886692;28;80715;-71
2021/09/24 03:16:29;;;;;;;9.00;2.55;;;18.90;83.30;;;;;;20871833;28;80716;-74
2021/09/24 03:26:36;;;;;;;6.93;2.15;;;18.80;83.30;;;;;;20868444;28;80889;-73
2021/09/24 03:36:40;;;;;;;4.38;2.03;;;18.80;83.10;;;;;;20867435;28;80704;-72
2021/09/24 03:46:42;;;;;;;10.02;2.30;;;18.80;82.80;;;;;;20884608;28;80732;-72
2021/09/24 03:56:47;;;;;;;6.07;2.60;;;18.70;82.80;;;;;;20884148;28;80637;-72
2021/09/24 04:06:51;;;;;;;3.25;2.50;;;18.60;82.90;;;;;;20890492;27;80106;-72
2021/09/24 04:16:54;;;;;;;4.20;2.28;;;18.70;82.60;;;;;;20896020;27;80130;-73
2021/09/24 04:26:57;;;;;;;7.30;1.90;;;18.80;82.50;;;;;;20897158;28;80607;-73
2021/09/24 04:37:02;;;;;;;6.78;2.28;;;18.80;82.30;;;;;;20896435;28;80755;-75
2021/09/24 04:47:05;;;;;;;8.30;2.42;;;18.90;82.30;;;;;;20893423;28;81027;-74
2021/09/24 04:57:12;;;;;;;6.22;2.10;;;18.90;82.00;;;;;;20872783;28;80555;-73
2021/09/24 05:07:14;;;;;;;8.55;2.67;;;18.90;81.80;;;;;;20866426;28;80350;-74
2021/09/24 05:17:16;;;;;;;5.60;2.63;;;18.90;81.90;;;;;;20893289;28;81513;-73
2021/09/24 05:27:19;;;;;;;7.30;3.10;;;18.80;82.00;;;;;;20893028;28;81057;-74
2021/09/24 05:37:23;;;;;;;5.53;2.15;;;18.70;82.20;;;;;;20859024;28;81132;-63
2021/09/24 05:47:25;;;;;;;8.80;2.33;;;18.70;82.10;;;;;;20863635;28;81999;-62
2021/09/24 05:57:27;;;;;;;9.00;2.70;;;18.60;82.10;;;;;;20878730;28;81722;-63
2021/09/24 06:07:29;;;;;;;11.80;2.87;;;18.70;82.10;;;;;;20879350;28;81336;-65
2021/09/24 06:17:33;;;;;;;10.50;2.67;;;18.70;82.20;;;;;;20864033;28;81776;-65
2021/09/24 06:27:38;;;;;;;9.57;3.00;;;18.80;81.80;;;;;;20876378;28;80960;-64
2021/09/24 06:37:42;;;;;;;9.70;2.38;;;19.00;81.40;;;;;;20863051;28;81102;-67
2021/09/24 06:47:44;;;;;;;11.02;2.88;;;19.00;81.20;;;;;;20879963;28;80853;-63
2021/09/24 06:57:46;;;;;;;6.40;2.23;;;19.20;80.60;;;;;;20859462;28;81341;-64
2021/09/24 07:07:50;;;;;;;7.55;2.83;;;19.20;80.40;;;;;;20876045;28;80762;-63
2021/09/24 07:17:52;;;;;;;9.20;2.50;;;19.40;79.90;;;;;;20874613;28;82007;-63
2021/09/24 07:27:55;;;;;;;13.52;3.10;;;19.80;79.00;;;;;;20854099;28;81631;-65
2021/09/24 07:37:57;;;;;;;9.15;3.15;;;20.20;77.90;;;;;;20857521;28;80408;-65
2021/09/24 07:48:00;;;;;;;9.27;2.40;;;20.40;77.00;;;;;;20872349;28;82306;-64
2021/09/24 07:58:03;;;;;;;12.07;2.80;;;20.50;77.00;;;;;;20855661;28;81148;-64
2021/09/24 08:08:06;;;;;;;10.20;3.15;;;20.80;75.40;;;;;;20854194;28;81420;-62
2021/09/24 08:18:12;;;;;;;13.18;2.97;;;20.90;75.20;;;;;;20853826;28;80809;-63
2021/09/24 08:28:18;;;;;;;19.33;3.30;;;21.20;74.50;;;;;;20871817;28;81416;-63
2021/09/24 08:38:21;;;;;;;16.23;3.50;;;21.90;72.40;;;;;;20868941;28;81863;-63
2021/09/24 08:48:24;;;;;;;10.98;3.40;;;21.90;70.60;;;;;;20871445;27;81198;-64
2021/09/24 08:58:26;;;;;;;15.20;3.33;;;21.90;70.00;;;;;;20885323;28;81804;-62
2021/09/24 09:08:29;;;;;;;11.23;3.27;;;22.70;67.30;;;;;;20884410;28;81869;-62
2021/09/24 09:18:36;;;;;;;11.88;2.95;;;23.30;64.70;;;;;;20883289;28;81682;-63
2021/09/24 09:28:54;;;;;;;16.27;3.10;;;23.00;65.00;;;;;;20864562;28;81580;-65
2021/09/24 09:38:57;;;;;;;14.00;2.22;;;22.90;65.00;;;;;;20878583;28;81869;-62
2021/09/24 09:49:08;;;;;;;8.50;2.38;;;24.70;59.80;;;;;;20879626;28;81060;-62
2021/09/24 09:59:25;;;;;;;15.40;2.30;;;25.80;56.20;;;;;;20877877;28;81910;-63
2021/09/24 10:09:31;;;;;;;16.55;3.13;;;28.20;50.40;;;;;;20878385;28;80687;-65
2021/09/24 10:19:33;;;;;;;16.33;3.30;;;28.60;47.60;;;;;;20860414;28;81852;-63
2021/09/24 10:29:43;;;;;;;19.48;3.55;;;29.00;46.90;;;;;;20880748;28;81943;-64
2021/09/24 10:39:47;;;;;;;16.05;2.97;;;27.50;51.00;;;;;;20879412;28;80943;-64
2021/09/24 10:49:50;;;;;;;21.25;2.78;;;28.90;48.30;;;;;;20878629;28;82160;-65
2021/09/24 11:00:21;;;;;;;14.68;2.80;;;31.50;40.80;;;;;;20872563;28;81439;-66
2021/09/24 11:10:37;;;;;;;17.67;3.20;;;28.50;47.00;;;;;;20876675;28;82329;-63
2021/09/24 11:20:38;;;;;;;17.10;3.67;;;30.80;43.10;;;;;;20874100;28;81726;-65
2021/09/24 11:30:48;;;;;;;18.40;3.50;;;32.40;39.10;;;;;;20875419;28;82108;-67
2021/09/24 11:40:55;;;;;;;17.17;2.88;;;30.40;44.00;;;;;;20873380;28;80937;-67
2021/09/24 11:51:12;;;;;;;10.88;2.88;;;34.00;36.70;;;;;;20874473;28;81879;-65
2021/09/24 12:01:16;;;;;;;20.48;4.43;;;33.40;38.10;;;;;;20869881;27;81690;-64
2021/09/24 12:11:23;;;;;;;19.50;2.92;;;35.60;33.90;;;;;;20873938;28;81873;-64
2021/09/24 12:21:46;;;;;;;17.40;3.47;;;33.40;37.70;;;;;;20872613;28;82252;-62
2021/09/24 12:31:51;;;;;;;18.40;3.45;;;31.20;41.00;;;;;;20881834;27;81380;-64
2021/09/24 12:41:54;;;;;;;16.73;3.38;;;28.40;47.50;;;;;;20882938;27;81982;-63
2021/09/24 12:51:58;;;;;;;16.02;2.80;;;27.50;49.10;;;;;;20866680;27;81815;-63
2021/09/24 13:02:02;;;;;;;18.65;3.80;;;27.30;49.30;;;;;;20895292;28;80799;-64
2021/09/24 13:12:05;;;;;;;22.80;4.00;;;28.60;47.20;;;;;;20895359;27;82073;-64
2021/09/24 13:22:08;;;;;;;22.17;4.18;;;31.40;41.40;;;;;;20876919;27;80625;-67
2021/09/24 13:32:13;;;;;;;25.60;3.70;;;29.00;46.10;;;;;;20879315;27;81868;-63
2021/09/24 13:42:16;;;;;;;24.48;4.15;;;27.00;51.50;;;;;;20887070;27;80860;-66
2021/09/24 13:52:19;;;;;;;46.40;8.10;;;26.50;53.40;;;;;;20869518;28;82119;-65
2021/09/24 14:02:21;;;;;;;12.70;1.48;;;24.50;67.20;;;;;;20868219;27;81941;-66
2021/09/24 14:12:23;;;;;;;7.20;2.83;;;21.20;79.50;;;;;;20885169;28;80074;-68
2021/09/24 14:22:25;;;;;;;15.48;4.20;;;21.50;84.40;;;;;;20863254;28;80833;-67
2021/09/24 14:32:27;;;;;;;20.95;5.32;;;21.70;85.70;;;;;;20885087;28;81834;-68
2021/09/24 14:42:29;;;;;;;15.73;5.43;;;21.70;86.50;;;;;;20884315;28;80773;-65
2021/09/24 14:52:31;;;;;;;17.00;4.35;;;22.40;88.20;;;;;;20882691;27;81601;-65
2021/09/24 15:02:33;;;;;;;;;;;22.50;88.20;;;;;;20888873;27;82087;-63
2021/09/24 15:12:35;;;;;;;5.10;2.00;;;24.40;91.90;;;;;;20910430;27;81801;-64
2021/09/24 15:22:38;;;;;;;10.82;2.50;;;25.00;84.90;;;;;;20888720;28;80245;-65
2021/09/24 15:32:42;;;;;;;6.40;2.10;;;26.30;80.90;;;;;;20882597;28;80323;-66
2021/09/24 15:42:44;;;;;;;6.20;1.50;;;28.30;74.40;;;;;;20883487;28;82110;-64
2021/09/24 15:52:46;;;;;;;11.77;1.80;;;25.60;77.40;;;;;;20884881;28;80158;-65
2021/09/24 16:02:47;;;;;;;11.20;3.03;;;24.50;79.30;;;;;;20891417;27;80787;-63
2021/09/24 16:12:51;;;;;;;6.30;2.47;;;23.50;80.00;;;;;;20900735;28;81892;-64
2021/09/24 16:22:53;;;;;;;7.57;2.63;;;23.10;80.60;;;;;;20899543;28;80364;-64
2021/09/24 16:32:56;;;;;;;9.35;4.03;;;22.80;80.30;;;;;;20898735;28;80710;-65
2021/09/24 16:42:57;;;;;;;12.18;4.18;;;22.60;80.40;;;;;;20899842;28;81878;-64
2021/09/24 16:52:59;;;;;;;;;;;22.80;80.40;;;;;;20899455;28;81896;-65
2021/09/24 17:03:00;;;;;;;11.68;3.42;;;22.90;85.40;;;;;;20919665;28;81823;-64
2021/09/24 17:13:03;;;;;;;9.50;2.83;;;22.70;80.70;;;;;;20897159;27;79946;-65
2021/09/24 17:23:06;;;;;;;10.93;3.15;;;22.50;80.90;;;;;;20895770;28;80024;-63
2021/09/24 17:33:08;;;;;;;10.60;3.00;;;22.40;80.90;;;;;;20895630;28;81647;-64
2021/09/24 17:43:10;;;;;;;10.27;3.65;;;22.30;81.10;;;;;;20894400;28;80211;-65
2021/09/24 17:53:13;;;;;;;13.63;4.00;;;22.20;80.80;;;;;;20893668;27;80737;-64
2021/09/24 18:03:15;;;;;;;;;;;22.00;81.20;;;;;;20891774;27;80793;-71
2021/09/24 18:13:17;;;;;;;10.83;4.67;;;21.70;83.70;;;;;;20913702;28;82387;-72
2021/09/24 18:23:19;;;;;;;10.23;3.97;;;21.40;82.30;;;;;;20889851;27;80112;-72
2021/09/24 18:33:21;;;;;;;;;;;21.30;82.40;;;;;;20890915;28;81901;-76
2021/09/24 18:43:23;;;;;;;8.85;3.72;;;21.00;84.10;;;;;;20901893;27;79466;-73
2021/09/24 18:53:24;;;;;;;11.82;3.33;;;20.90;82.80;;;;;;20882473;27;80085;-74
2021/09/24 19:03:26;;;;;;;;;;;20.60;82.60;;;;;;20878588;27;81114;-73
2021/09/24 19:13:28;;;;;;;10.57;4.45;;;20.50;84.10;;;;;;20877667;27;81280;-75
2021/09/24 19:23:30;;;;;;;15.23;4.57;;;20.50;82.90;;;;;;20880166;27;80526;-74
2021/09/24 19:33:33;;;;;;;13.02;3.83;;;20.60;82.50;;;;;;20875093;28;80803;-73
2021/09/24 19:43:35;;;;;;;;;;;20.50;82.40;;;;;;20872683;28;80824;-75
2021/09/24 19:53:36;;;;;;;9.65;4.28;;;20.50;83.90;;;;;;20884754;27;79728;-73
2021/09/24 20:03:40;;;;;;;12.55;4.00;;;20.40;82.40;;;;;;20915691;27;80376;-74
2021/09/24 20:13:48;;;;;;;16.58;4.78;;;20.50;82.20;;;;;;20897512;27;81133;-72
2021/09/24 20:23:51;;;;;;;14.32;5.38;;;20.50;82.10;;;;;;20894560;27;80846;-77
2021/09/24 20:33:56;;;;;;;15.45;4.72;;;20.50;82.10;;;;;;20868097;28;80640;-73
2021/09/24 20:43:58;;;;;;;21.83;5.72;;;20.60;82.10;;;;;;20866629;27;80529;-75
2021/09/24 20:54:01;;;;;;;25.52;6.22;;;20.60;82.10;;;;;;20881433;27;81949;-73
2021/09/24 21:04:03;;;;;;;17.80;6.20;;;20.50;82.60;;;;;;20864746;28;83177;-74
2021/09/24 21:14:06;;;;;;;15.63;7.32;;;20.40;83.30;;;;;;20878892;28;80178;-72
2021/09/24 21:24:08;;;;;;;19.15;7.88;;;20.00;84.20;;;;;;20895904;28;81192;-70
2021/09/24 21:34:11;;;;;;;17.95;6.10;;;19.90;85.00;;;;;;20896955;27;81188;-71
2021/09/24 21:44:12;;;;;;;21.17;7.07;;;19.70;85.60;;;;;;20877801;27;80193;-70
2021/09/24 21:54:14;;;;;;;22.70;8.00;;;19.40;86.20;;;;;;20877205;28;82077;-71
2021/09/24 22:04:16;;;;;;;24.77;7.67;;;19.20;86.80;;;;;;20893338;27;81826;-74
2021/09/24 22:14:18;;;;;;;22.40;7.80;;;19.10;86.90;;;;;;20894716;28;81833;-74
2021/09/24 22:24:21;;;;;;;20.40;8.65;;;19.40;87.00;;;;;;20875311;28;81954;-71
2021/09/24 22:34:23;;;;;;;18.50;8.50;;;19.50;87.10;;;;;;20873511;28;81700;-71
2021/09/24 22:44:25;;;;;;;18.63;9.53;;;19.60;87.10;;;;;;20890115;28;81195;-73
2021/09/24 22:54:27;;;;;;;23.02;9.88;;;19.40;87.20;;;;;;20891113;27;83908;-74
2021/09/24 23:04:32;;;;;;;17.88;8.65;;;19.40;87.40;;;;;;20889909;28;81754;-72
2021/09/24 23:14:34;;;;;;;23.23;9.57;;;19.40;87.40;;;;;;20870575;28;81211;-74
2021/09/24 23:24:36;;;;;;;24.13;6.50;;;19.40;87.30;;;;;;20887100;28;81817;-75
2021/09/24 23:34:39;;;;;;;17.38;7.10;;;19.50;87.10;;;;;;20884640;27;81305;-74
2021/09/24 23:44:42;;;;;;;24.63;8.48;;;19.40;87.00;;;;;;20886017;28;80013;-76
2021/09/24 23:54:44;;;;;;;17.52;7.38;;;19.40;87.00;;;;;;20884471;27;82030;-77
